createdAt,value
2022-08-21T00:02:07.301Z,8.07
2022-08-21T00:04:36.014Z,10.73
2022-08-21T00:07:05.059Z,8.07
2022-08-21T00:09:34.291Z,6.90
2022-08-21T00:12:02.397Z,8.83
2022-08-21T00:14:32.890Z,7.27
2022-08-21T00:17:01.096Z,6.77
2022-08-21T00:19:29.245Z,7.30
2022-08-21T00:21:57.253Z,6.50
2022-08-21T00:24:25.403Z,6.93
2022-08-21T00:26:53.467Z,8.10
2022-08-21T00:29:21.477Z,10.03
2022-08-21T00:31:50.875Z,6.43
2022-08-21T00:34:18.928Z,10.20
2022-08-21T00:36:46.906Z,7.07
2022-08-21T00:39:15.478Z,9.40
2022-08-21T00:41:43.673Z,8.00
2022-08-21T00:44:12.890Z,7.10
2022-08-21T00:46:41.071Z,9.20
2022-08-21T00:49:10.820Z,7.63
2022-08-21T00:51:42.128Z,9.87
2022-08-21T00:54:18.371Z,6.57
2022-08-21T00:56:48.396Z,5.93
2022-08-21T00:59:16.443Z,9.50
2022-08-21T01:01:44.555Z,9.77
2022-08-21T01:04:14.124Z,6.90
2022-08-21T01:06:42.278Z,7.63
2022-08-21T01:09:11.143Z,8.53
2022-08-21T01:11:39.108Z,10.17
2022-08-21T01:14:07.213Z,9.03
2022-08-21T01:16:35.353Z,11.23
2022-08-21T01:19:03.305Z,7.97
2022-08-21T01:21:32.839Z,10.63
2022-08-21T01:24:01.284Z,8.50
2022-08-21T01:26:33.944Z,8.57
2022-08-21T01:29:03.906Z,8.90
2022-08-21T01:31:32.586Z,8.40
2022-08-21T01:34:00.731Z,8.83
2022-08-21T01:36:28.987Z,9.73
2022-08-21T01:38:58.578Z,10.13
2022-08-21T01:41:26.639Z,10.57
2022-08-21T01:43:54.614Z,8.33
2022-08-21T01:46:22.723Z,8.93
2022-08-21T01:48:50.830Z,10.03
2022-08-21T01:51:18.990Z,9.50
2022-08-21T01:53:46.967Z,8.50
2022-08-21T01:56:16.868Z,10.43
2022-08-21T01:58:45.719Z,9.93
2022-08-21T02:01:14.103Z,9.53
2022-08-21T02:03:42.126Z,10.03
2022-08-21T02:06:13.803Z,11.33
2022-08-21T02:08:42.460Z,9.63
2022-08-21T02:11:10.606Z,10.83
2022-08-21T02:13:40.449Z,10.50
2022-08-21T02:16:09.063Z,11.30
2022-08-21T02:18:37.285Z,11.63
2022-08-21T02:21:05.825Z,10.53
2022-08-21T02:23:34.249Z,9.17
2022-08-21T02:26:02.859Z,10.67
2022-08-21T02:28:32.066Z,10.30
2022-08-21T02:31:02.356Z,14.93
2022-08-21T02:33:30.722Z,9.93
2022-08-21T02:35:59.871Z,9.13
2022-08-21T02:38:29.160Z,10.43
2022-08-21T02:40:57.414Z,9.87
2022-08-21T02:43:26.836Z,8.93
2022-08-21T02:45:55.022Z,9.10
2022-08-21T02:48:25.618Z,13.60
2022-08-21T02:50:54.970Z,12.70
2022-08-21T02:53:23.112Z,9.00
2022-08-21T02:55:52.283Z,10.80
2022-08-21T02:58:21.319Z,10.63
2022-08-21T03:00:49.645Z,10.27
2022-08-21T03:03:17.879Z,11.03
2022-08-21T03:05:47.546Z,11.10
2022-08-21T03:08:16.888Z,9.10
2022-08-21T03:10:47.415Z,8.77
2022-08-21T03:13:16.099Z,10.33
2022-08-21T03:15:44.220Z,8.97
2022-08-21T03:18:12.864Z,10.17
2022-08-21T03:20:42.052Z,9.03
2022-08-21T03:23:13.367Z,8.70
2022-08-21T03:25:42.661Z,12.60
2022-08-21T03:28:13.377Z,8.40
2022-08-21T03:30:42.373Z,9.80
2022-08-21T03:33:12.349Z,9.30
2022-08-21T03:35:43.965Z,11.33
2022-08-21T03:38:16.211Z,11.70
2022-08-21T03:40:44.864Z,9.40
2022-08-21T03:43:13.234Z,8.10
2022-08-21T03:45:41.680Z,9.10
2022-08-21T03:48:10.745Z,8.07
2022-08-21T03:50:41.044Z,9.37
2022-08-21T03:53:17.257Z,8.53
2022-08-21T03:55:48.038Z,9.33
2022-08-21T03:58:17.511Z,8.00
2022-08-21T04:00:46.443Z,10.30
2022-08-21T04:03:14.776Z,8.60
2022-08-21T04:05:43.129Z,8.77
2022-08-21T04:08:11.335Z,10.00
2022-08-21T04:10:40.107Z,11.20
2022-08-21T04:13:10.099Z,8.77
2022-08-21T04:15:38.671Z,9.80
2022-08-21T04:18:07.413Z,13.47
2022-08-21T04:20:35.842Z,9.93
2022-08-21T04:23:04.133Z,10.10
2022-08-21T04:25:33.092Z,9.83
2022-08-21T04:28:02.932Z,9.70
2022-08-21T04:30:32.899Z,10.13
2022-08-21T04:33:01.274Z,9.23
2022-08-21T04:35:30.362Z,11.80
2022-08-21T04:37:59.083Z,9.33
2022-08-21T04:40:28.893Z,9.77
2022-08-21T04:43:00.338Z,11.80
2022-08-21T04:45:29.891Z,10.20
2022-08-21T04:48:00.600Z,9.50
2022-08-21T04:50:31.257Z,9.60
2022-08-21T04:52:59.885Z,12.27
2022-08-21T04:55:29.148Z,10.70
2022-08-21T04:57:57.627Z,11.07
2022-08-21T05:00:26.489Z,9.37
2022-08-21T05:02:57.490Z,9.73
2022-08-21T05:05:27.365Z,9.30
2022-08-21T05:07:57.274Z,9.63
2022-08-21T05:10:25.762Z,12.50
2022-08-21T05:12:54.166Z,9.07
2022-08-21T05:15:22.765Z,9.87
2022-08-21T05:17:53.583Z,9.37
2022-08-21T05:20:31.502Z,9.33
2022-08-21T05:23:00.068Z,10.07
2022-08-21T05:25:28.686Z,13.37
2022-08-21T05:28:00.799Z,8.90
2022-08-21T05:30:29.218Z,10.00
2022-08-21T05:32:59.318Z,9.87
2022-08-21T05:35:30.453Z,9.70
2022-08-21T05:38:00.780Z,10.07
2022-08-21T05:40:29.094Z,11.60
2022-08-21T05:42:57.837Z,11.83
2022-08-21T05:45:41.521Z,9.83
2022-08-21T05:48:10.623Z,10.83
2022-08-21T05:50:39.185Z,11.80
2022-08-21T05:53:08.592Z,11.23
2022-08-21T05:55:42.743Z,11.17
2022-08-21T05:58:13.259Z,10.57
2022-08-21T06:00:41.813Z,9.73
2022-08-21T06:03:13.777Z,13.20
2022-08-21T06:05:42.193Z,10.93
2022-08-21T06:08:12.058Z,10.43
2022-08-21T06:10:40.444Z,11.40
2022-08-21T06:13:13.306Z,12.77
2022-08-21T06:15:41.373Z,13.23
2022-08-21T06:18:09.375Z,13.37
2022-08-21T06:20:37.325Z,13.77
2022-08-21T06:23:05.318Z,12.30
2022-08-21T06:25:34.720Z,12.07
2022-08-21T06:28:04.225Z,14.20
2022-08-21T06:30:32.402Z,12.70
2022-08-21T06:33:01.320Z,10.57
2022-08-21T06:35:30.129Z,10.10
2022-08-21T06:37:58.257Z,12.52
2022-08-21T06:40:26.443Z,12.68
2022-08-21T06:42:56.311Z,10.48
2022-08-21T06:45:24.938Z,11.18
2022-08-21T06:47:56.700Z,11.65
2022-08-21T06:50:27.165Z,10.80
2022-08-21T06:53:01.685Z,11.27
2022-08-21T06:55:30.255Z,10.48
2022-08-21T06:58:00.318Z,12.75
2022-08-21T07:00:28.284Z,10.55
2022-08-21T07:02:56.338Z,10.15
2022-08-21T07:05:24.393Z,10.93
2022-08-21T07:07:52.430Z,8.05
2022-08-21T07:10:22.179Z,10.77
2022-08-21T07:12:59.107Z,11.45
2022-08-21T07:15:30.997Z,9.25
2022-08-21T07:18:00.119Z,8.00
2022-08-21T07:20:28.987Z,10.77
2022-08-21T07:22:58.140Z,9.95
2022-08-21T07:25:26.418Z,10.95
2022-08-21T07:27:54.693Z,9.35
2022-08-21T07:30:23.038Z,9.05
2022-08-21T07:32:52.914Z,7.60
2022-08-21T07:35:21.930Z,8.88
2022-08-21T07:38:03.584Z,8.13
2022-08-21T07:40:43.094Z,7.20
2022-08-21T07:43:19.104Z,7.78
2022-08-21T07:46:20.885Z,6.60
2022-08-21T07:49:18.493Z,10.20
2022-08-21T07:52:01.054Z,8.40
2022-08-21T07:54:33.629Z,7.18
2022-08-21T07:57:09.107Z,5.57
2022-08-21T07:59:37.589Z,4.53
2022-08-21T08:02:06.065Z,6.38
2022-08-21T08:04:35.878Z,8.40
2022-08-21T08:07:05.664Z,7.35
2022-08-21T08:09:34.091Z,6.13
2022-08-21T08:15:49.777Z,4.60
2022-08-21T08:18:18.116Z,4.30
2022-08-21T08:20:48.120Z,5.30
2022-08-21T08:23:16.898Z,5.25
2022-08-21T08:25:52.538Z,5.22
2022-08-21T08:28:22.465Z,4.55
2022-08-21T08:30:51.027Z,6.07
2022-08-21T08:33:19.382Z,3.72
2022-08-21T08:35:50.631Z,3.20
2022-08-21T08:38:21.490Z,2.60
2022-08-21T08:40:57.218Z,3.47
2022-08-21T08:43:25.642Z,3.95
2022-08-21T08:45:53.793Z,6.07
2022-08-21T08:48:36.748Z,5.05
2022-08-21T08:51:07.485Z,4.85
2022-08-21T08:53:40.089Z,5.03
2022-08-21T08:56:08.624Z,3.50
2022-08-21T08:58:39.320Z,4.13
2022-08-21T09:01:09.150Z,3.78
2022-08-21T09:03:37.477Z,5.07
2022-08-21T09:06:11.095Z,4.13
2022-08-21T09:08:46.070Z,5.35
2022-08-21T09:11:18.642Z,4.85
2022-08-21T09:13:53.334Z,6.03
2022-08-21T09:16:25.280Z,4.55
2022-08-21T09:19:00.743Z,5.32
2022-08-21T09:21:33.549Z,4.30
2022-08-21T09:24:11.832Z,6.20
2022-08-21T09:26:47.775Z,4.28
2022-08-21T09:29:26.659Z,5.28
2022-08-21T09:32:04.318Z,7.75
2022-08-21T09:35:04.769Z,4.30
2022-08-21T09:38:15.259Z,4.90
2022-08-21T09:40:50.633Z,4.88
2022-08-21T09:43:21.473Z,3.65
2022-08-21T09:46:36.126Z,7.43
2022-08-21T09:52:35.592Z,6.18
2022-08-21T09:55:52.572Z,4.85
2022-08-21T09:58:36.629Z,4.68
2022-08-21T10:01:07.955Z,4.65
2022-08-21T10:03:56.275Z,4.15
2022-08-21T10:06:43.941Z,4.80
2022-08-21T10:09:25.625Z,4.15
2022-08-21T10:12:06.935Z,5.55
2022-08-21T10:15:08.248Z,4.88
2022-08-21T10:17:55.577Z,4.35
2022-08-21T10:20:28.406Z,4.43
2022-08-21T10:23:06.224Z,2.95
2022-08-21T10:25:39.400Z,6.75
2022-08-21T10:28:23.628Z,3.72
2022-08-21T10:31:14.897Z,2.70
2022-08-21T10:33:49.308Z,2.50
2022-08-21T10:36:25.156Z,3.42
2022-08-21T10:39:26.374Z,4.53
2022-08-21T10:42:09.221Z,3.53
2022-08-21T10:44:48.843Z,5.40
2022-08-21T10:47:21.413Z,3.65
2022-08-21T10:49:52.640Z,3.13
2022-08-21T10:52:31.595Z,3.10
2022-08-21T10:55:03.071Z,4.05
2022-08-21T10:57:36.519Z,5.30
2022-08-21T11:00:08.792Z,2.78
2022-08-21T11:02:43.237Z,3.55
2022-08-21T11:05:14.301Z,5.20
2022-08-21T11:07:59.496Z,2.85
2022-08-21T11:10:31.988Z,3.90
2022-08-21T11:13:04.257Z,4.60
2022-08-21T11:15:37.588Z,2.80
2022-08-21T11:18:16.995Z,2.90
2022-08-21T11:20:47.424Z,3.30
2022-08-21T11:23:18.905Z,3.20
2022-08-21T11:25:48.472Z,2.25
2022-08-21T11:28:19.303Z,2.42
2022-08-21T11:30:50.583Z,3.95
2022-08-21T11:33:32.143Z,4.78
2022-08-21T11:36:05.213Z,3.08
2022-08-21T11:38:36.800Z,3.10
2022-08-21T11:41:12.530Z,3.72
2022-08-21T11:43:42.297Z,3.03
2022-08-21T11:46:16.748Z,2.88
2022-08-21T11:48:51.270Z,2.45
2022-08-21T11:51:23.048Z,2.30
2022-08-21T11:53:54.381Z,3.78
2022-08-21T11:56:24.456Z,2.28
2022-08-21T11:58:53.765Z,3.20
2022-08-21T12:01:25.368Z,4.00
2022-08-21T12:03:58.958Z,2.75
2022-08-21T12:06:32.166Z,1.75
2022-08-21T12:09:01.365Z,4.55
2022-08-21T12:11:31.065Z,3.72
2022-08-21T12:14:00.508Z,2.22
2022-08-21T12:16:32.510Z,2.53
2022-08-21T12:19:08.149Z,1.63
2022-08-21T12:21:36.398Z,4.38
2022-08-21T12:24:07.265Z,3.05
2022-08-21T12:26:36.779Z,3.90
2022-08-21T12:29:15.583Z,3.33
2022-08-21T12:31:51.519Z,9.05
2022-08-21T12:34:20.826Z,2.30
2022-08-21T12:36:51.891Z,2.83
2022-08-21T12:39:23.538Z,3.45
2022-08-21T12:41:57.955Z,5.20
2022-08-21T12:44:31.258Z,2.15
2022-08-21T12:47:00.537Z,2.45
2022-08-21T12:49:33.106Z,3.08
2022-08-21T12:52:04.920Z,4.50
2022-08-21T12:54:34.472Z,3.45
2022-08-21T12:57:03.048Z,1.75
2022-08-21T12:59:31.059Z,2.53
2022-08-21T13:02:00.362Z,3.85
2022-08-21T13:04:36.067Z,2.25
2022-08-21T13:07:07.403Z,3.25
2022-08-21T13:09:35.450Z,3.17
2022-08-21T13:12:03.326Z,2.05
2022-08-21T13:14:34.110Z,3.30
2022-08-21T13:17:02.394Z,2.47
2022-08-21T13:19:32.622Z,1.88
2022-08-21T13:22:00.861Z,2.78
2022-08-21T13:24:45.934Z,2.47
2022-08-21T13:27:23.292Z,3.15
2022-08-21T13:29:53.418Z,1.73
2022-08-21T13:32:25.143Z,2.92
2022-08-21T13:34:55.731Z,2.22
2022-08-21T13:37:23.704Z,2.83
2022-08-21T13:39:52.967Z,2.00
2022-08-21T13:42:21.251Z,1.75
2022-08-21T13:44:49.613Z,2.38
2022-08-21T13:47:18.165Z,10.95
2022-08-21T13:49:47.554Z,3.40
2022-08-21T13:52:18.760Z,3.22
2022-08-21T13:54:46.984Z,3.05
2022-08-21T13:57:19.348Z,2.83
2022-08-21T13:59:47.519Z,3.42
2022-08-21T14:02:19.738Z,2.58
2022-08-21T14:04:54.000Z,5.88
2022-08-21T14:07:27.214Z,2.13
2022-08-21T14:09:55.630Z,3.20
2022-08-21T14:12:27.601Z,2.60
2022-08-21T14:14:55.892Z,5.45
2022-08-21T14:17:33.770Z,2.28
2022-08-21T14:20:02.143Z,4.00
2022-08-21T14:22:34.320Z,2.47
2022-08-21T14:25:03.501Z,2.22
2022-08-21T14:27:32.142Z,2.85
2022-08-21T14:30:01.071Z,2.63
2022-08-21T14:32:32.767Z,2.72
2022-08-21T14:35:00.861Z,1.40
2022-08-21T14:37:28.834Z,4.50
2022-08-21T14:39:58.437Z,2.88
2022-08-21T14:42:26.463Z,7.97
2022-08-21T14:44:54.452Z,1.90
2022-08-21T14:47:22.466Z,2.85
2022-08-21T14:49:51.381Z,3.38
2022-08-21T14:52:19.321Z,1.38
2022-08-21T14:54:47.215Z,3.38
2022-08-21T14:57:16.592Z,3.22
2022-08-21T14:59:44.730Z,2.30
2022-08-21T15:02:12.773Z,1.40
2022-08-21T15:04:40.715Z,1.60
2022-08-21T15:07:08.591Z,1.98
2022-08-21T15:09:36.506Z,1.85
2022-08-21T15:12:05.045Z,2.55
2022-08-21T15:14:35.948Z,4.72
2022-08-21T15:17:04.646Z,1.67
2022-08-21T15:19:32.813Z,2.28
2022-08-21T15:22:00.941Z,2.08
2022-08-21T15:24:29.429Z,1.60
2022-08-21T15:26:57.445Z,1.40
2022-08-21T15:29:27.767Z,1.67
2022-08-21T15:32:04.007Z,2.13
2022-08-21T15:34:32.639Z,1.42
2022-08-21T15:37:06.459Z,1.67
2022-08-21T15:39:37.143Z,1.70
2022-08-21T15:42:10.595Z,1.70
2022-08-21T15:44:40.080Z,3.38
2022-08-21T15:47:11.192Z,1.77
2022-08-21T15:49:39.208Z,2.13
2022-08-21T15:52:07.425Z,2.20
2022-08-21T15:54:35.449Z,1.75
2022-08-21T15:57:03.666Z,2.03
2022-08-21T15:59:31.623Z,1.70
2022-08-21T16:01:59.614Z,2.00
2022-08-21T16:04:29.967Z,1.45
2022-08-21T16:07:05.237Z,2.90
2022-08-21T16:09:36.673Z,2.92
2022-08-21T16:12:05.579Z,2.70
2022-08-21T16:14:34.140Z,4.05
2022-08-21T16:17:02.104Z,1.67
2022-08-21T16:19:31.501Z,2.13
2022-08-21T16:21:59.767Z,3.35
2022-08-21T16:24:27.844Z,1.80
2022-08-21T16:26:58.349Z,1.50
2022-08-21T16:29:28.139Z,1.55
2022-08-21T16:31:57.714Z,2.35
2022-08-21T16:34:26.095Z,2.42
2022-08-21T16:36:55.906Z,3.33
2022-08-21T16:39:24.099Z,2.17
2022-08-21T16:41:52.781Z,2.65
2022-08-21T16:44:20.811Z,2.78
2022-08-21T16:46:50.319Z,2.25
2022-08-21T16:49:18.496Z,3.15
2022-08-21T16:51:46.975Z,2.13
2022-08-21T16:54:16.562Z,1.77
2022-08-21T16:56:47.596Z,1.65
2022-08-21T16:59:17.407Z,1.70
2022-08-21T17:01:47.095Z,1.60
2022-08-21T17:04:15.778Z,2.70
2022-08-21T17:06:44.349Z,2.70
2022-08-21T17:09:12.747Z,2.00
2022-08-21T17:11:43.985Z,2.63
2022-08-21T17:14:13.577Z,3.17
2022-08-21T17:16:42.856Z,3.58
2022-08-21T17:19:13.265Z,2.72
2022-08-21T17:21:41.826Z,5.50
2022-08-21T17:24:10.773Z,1.95
2022-08-21T17:26:41.810Z,2.03
2022-08-21T17:29:10.193Z,2.55
2022-08-21T17:31:38.780Z,2.30
2022-08-21T17:34:07.613Z,2.10
2022-08-21T17:36:35.576Z,3.25
2022-08-21T17:39:04.371Z,2.50
2022-08-21T17:41:32.870Z,2.17
2022-08-21T17:44:02.554Z,2.13
2022-08-21T17:46:30.870Z,5.93
2022-08-21T17:48:59.490Z,1.88
2022-08-21T17:51:32.312Z,4.35
2022-08-21T17:54:02.151Z,1.30
2022-08-21T17:56:32.985Z,2.97
2022-08-21T17:59:03.020Z,3.50
2022-08-21T18:01:31.309Z,3.72
2022-08-21T18:04:26.733Z,5.20
2022-08-21T18:06:54.678Z,3.22
2022-08-21T18:09:27.894Z,3.05
2022-08-21T18:11:56.095Z,5.28
2022-08-21T18:14:28.530Z,4.97
2022-08-21T18:16:58.281Z,2.33
2022-08-21T18:19:26.642Z,2.28
2022-08-21T18:21:55.050Z,2.50
2022-08-21T18:24:23.365Z,2.53
2022-08-21T18:26:57.171Z,3.40
2022-08-21T18:29:47.163Z,3.45
2022-08-21T18:32:30.410Z,5.22
2022-08-21T18:35:00.790Z,2.88
2022-08-21T18:37:29.729Z,3.50
2022-08-21T18:39:58.604Z,5.90
2022-08-21T18:42:29.193Z,3.80
2022-08-21T18:45:00.277Z,3.05
2022-08-21T18:47:29.864Z,2.90
2022-08-21T18:49:59.907Z,2.65
2022-08-21T18:52:28.551Z,1.92
2022-08-21T18:54:57.766Z,2.70
2022-08-21T18:57:26.315Z,2.72
2022-08-21T18:59:54.231Z,2.08
2022-08-21T19:02:24.124Z,2.13
2022-08-21T19:04:53.473Z,3.55
2022-08-21T19:07:21.819Z,2.15
2022-08-21T19:10:21.034Z,3.95
2022-08-21T19:12:38.997Z,1.63
2022-08-21T19:15:07.400Z,3.13
2022-08-21T19:17:37.892Z,4.35
2022-08-21T19:20:25.061Z,2.25
2022-08-21T19:22:53.819Z,2.97
2022-08-21T19:25:33.568Z,2.00
2022-08-21T19:28:02.833Z,2.72
2022-08-21T19:30:31.178Z,3.17
2022-08-21T19:33:01.187Z,2.33
2022-08-21T19:35:31.021Z,2.00
2022-08-21T19:37:58.995Z,2.78
2022-08-21T19:40:27.976Z,1.98
2022-08-21T19:42:56.207Z,1.90
2022-08-21T19:45:26.528Z,1.88
2022-08-21T19:47:58.739Z,2.05
2022-08-21T19:50:28.278Z,3.15
2022-08-21T19:53:03.232Z,3.08
2022-08-21T19:55:31.582Z,2.78
2022-08-21T19:58:02.187Z,2.22
2022-08-21T20:00:30.343Z,4.35
2022-08-21T20:02:59.476Z,4.30
2022-08-21T20:05:31.390Z,4.07
2022-08-21T20:08:20.045Z,2.20
2022-08-21T20:10:49.970Z,2.95
2022-08-21T20:13:22.229Z,2.60
2022-08-21T20:15:50.206Z,2.40
2022-08-21T20:18:19.413Z,2.30
2022-08-21T20:20:56.188Z,2.88
2022-08-21T20:26:12.331Z,2.35
2022-08-21T20:28:40.282Z,2.78
2022-08-21T20:31:09.614Z,3.40
2022-08-21T20:33:37.800Z,4.35
2022-08-21T20:36:07.980Z,2.25
2022-08-21T20:38:38.019Z,3.58
2022-08-21T20:41:18.010Z,3.13
2022-08-21T20:43:50.205Z,2.40
2022-08-21T20:46:21.373Z,2.63
2022-08-21T20:48:50.252Z,2.58
2022-08-21T20:51:22.789Z,5.05
2022-08-21T20:53:53.447Z,4.72
2022-08-21T20:56:36.613Z,2.83
2022-08-21T20:59:09.029Z,2.97
2022-08-21T21:01:37.434Z,2.90
2022-08-21T21:04:09.871Z,2.63
2022-08-21T21:06:39.859Z,5.55
2022-08-21T21:09:11.091Z,4.43
2022-08-21T21:11:42.931Z,2.97
2022-08-21T21:14:13.793Z,4.30
2022-08-21T21:22:25.373Z,3.42
2022-08-21T21:25:00.330Z,4.43
2022-08-21T21:27:34.827Z,4.47
2022-08-21T21:30:06.975Z,4.87
2022-08-21T21:32:40.670Z,2.60
2022-08-21T21:35:09.503Z,3.70
2022-08-21T21:37:40.652Z,2.87
2022-08-21T21:40:21.415Z,4.70
2022-08-21T21:42:54.168Z,4.10
2022-08-21T21:45:26.149Z,2.73
2022-08-21T21:48:03.407Z,4.17
2022-08-21T21:50:42.690Z,4.30
2022-08-21T21:53:20.798Z,3.57
2022-08-21T21:56:06.692Z,2.80
2022-08-21T21:58:55.518Z,5.67
2022-08-21T22:01:38.400Z,3.97
2022-08-21T22:04:10.360Z,3.17
2022-08-21T22:25:37.644Z,3.83
2022-08-21T22:28:07.631Z,3.73
2022-08-21T22:30:40.347Z,5.87
2022-08-21T22:33:12.651Z,3.27
2022-08-21T22:35:40.911Z,4.90
2022-08-21T22:38:19.438Z,3.53
2022-08-21T22:40:51.717Z,4.30
2022-08-21T22:43:21.355Z,3.23
2022-08-21T22:45:58.758Z,3.47
2022-08-21T22:48:27.975Z,3.50
2022-08-21T22:51:02.127Z,3.33
2022-08-21T22:53:31.347Z,8.00
2022-08-21T22:56:01.787Z,3.60
2022-08-21T22:58:31.709Z,4.30
2022-08-21T23:01:01.030Z,7.93
2022-08-21T23:06:24.832Z,5.83
2022-08-21T23:08:53.986Z,3.63
2022-08-21T23:11:25.673Z,6.20
2022-08-21T23:13:56.306Z,3.83
2022-08-21T23:16:35.280Z,5.10
2022-08-21T23:19:17.576Z,5.60
2022-08-21T23:21:48.698Z,6.20
2022-08-21T23:24:50.377Z,3.77
2022-08-21T23:27:24.141Z,4.43
2022-08-21T23:29:55.884Z,4.30
2022-08-21T23:32:35.456Z,3.93
2022-08-21T23:35:07.534Z,8.00
2022-08-21T23:43:41.679Z,4.10
2022-08-21T23:46:32.419Z,4.70
2022-08-21T23:52:01.569Z,4.67
2022-08-21T23:54:35.483Z,3.97
2022-08-21T23:57:09.122Z,5.67
2022-08-21T23:59:58.568Z,5.70
